Time;durP1;ratioP1;P1;durP2;ratioP2;P2;SDS_P1;SDS_P2;PMS_P1;PMS_P2;Temp;Humidity;BMP_temperature;BMP_pressure;BME280_temperature;BME280_humidity;BME280_pressure;Samples;Min_cycle;Max_cycle;Signal;HPM_P1;HPM_P2
2022/07/29 00:01:24;;;;;;;1.35;0.40;;;17.30;85.50;;;;;;5043006;28;20029;-75
2022/07/29 00:03:52;;;;;;;1.55;0.43;;;17.30;85.60;;;;;;5058753;28;20028;-75
2022/07/29 00:06:26;;;;;;;2.78;0.50;;;17.30;85.90;;;;;;5061144;28;20475;-76
2022/07/29 00:08:52;;;;;;;3.17;0.50;;;17.30;86.10;;;;;;5042418;28;20025;-75
2022/07/29 00:11:18;;;;;;;2.50;0.40;;;17.20;86.40;;;;;;5059339;28;20029;-76
2022/07/29 00:13:45;;;;;;;1.70;0.40;;;17.20;86.70;;;;;;5058867;28;20463;-76
2022/07/29 00:16:22;;;;;;;1.70;0.40;;;17.20;87.00;;;;;;5038760;28;20514;-76
2022/07/29 00:18:54;;;;;;;1.30;0.30;;;17.10;87.20;;;;;;5011943;28;20028;-75
2022/07/29 00:21:24;;;;;;;1.77;0.47;;;17.10;87.60;;;;;;5060820;28;20025;-75
2022/07/29 00:23:52;;;;;;;2.05;0.45;;;17.00;87.80;;;;;;5057273;28;20032;-75
2022/07/29 00:26:27;;;;;;;1.73;0.50;;;17.00;87.80;;;;;;5039933;28;20502;-75
2022/07/29 00:28:54;;;;;;;1.67;0.45;;;17.00;88.00;;;;;;5058326;28;20344;-75
2022/07/29 00:31:20;;;;;;;2.08;0.60;;;17.00;88.20;;;;;;5058411;28;20167;-75
2022/07/29 00:33:46;;;;;;;1.88;0.40;;;17.00;88.60;;;;;;5059853;28;20032;-75
2022/07/29 00:36:13;;;;;;;2.13;0.40;;;17.00;88.70;;;;;;5039679;28;20488;-75
2022/07/29 00:38:41;;;;;;;1.70;0.40;;;17.00;88.90;;;;;;5041334;28;20044;-75
2022/07/29 00:41:11;;;;;;;1.50;0.40;;;17.00;89.20;;;;;;5044063;28;20028;-76
2022/07/29 00:43:40;;;;;;;1.90;0.50;;;16.90;89.50;;;;;;5059500;28;20021;-76
2022/07/29 00:46:10;;;;;;;2.45;0.40;;;17.00;89.60;;;;;;5055156;28;20498;-76
2022/07/29 00:48:39;;;;;;;1.77;0.38;;;17.00;89.50;;;;;;5028007;28;20016;-76
2022/07/29 00:51:07;;;;;;;1.50;0.50;;;17.00;89.60;;;;;;5059388;28;20033;-76
2022/07/29 00:53:35;;;;;;;2.58;0.40;;;17.00;90.00;;;;;;5042762;28;20009;-76
2022/07/29 00:56:01;;;;;;;1.08;0.40;;;16.90;90.00;;;;;;5055860;28;20032;-76
2022/07/29 00:58:29;;;;;;;1.35;0.50;;;17.00;90.00;;;;;;5042126;28;20503;-76
2022/07/29 01:00:58;;;;;;;1.30;0.50;;;17.00;90.10;;;;;;5044366;28;20020;-76
2022/07/29 01:03:25;;;;;;;2.00;0.50;;;16.90;90.20;;;;;;5059271;28;20041;-76
2022/07/29 01:05:54;;;;;;;3.63;0.50;;;16.90;90.40;;;;;;5071900;28;20040;-76
2022/07/29 01:08:24;;;;;;;1.58;0.43;;;16.90;90.50;;;;;;5059194;28;20095;-76
2022/07/29 01:10:51;;;;;;;3.88;0.80;;;16.90;90.50;;;;;;5059999;28;20021;-76
2022/07/29 01:13:18;;;;;;;3.35;0.70;;;16.90;90.70;;;;;;5060326;28;20029;-76
2022/07/29 01:15:54;;;;;;;1.85;0.57;;;16.90;90.70;;;;;;5055564;28;20040;-76
2022/07/29 01:18:30;;;;;;;2.42;0.80;;;16.90;90.70;;;;;;5058185;28;20029;-76
2022/07/29 01:21:18;;;;;;;2.10;0.50;;;16.90;90.70;;;;;;5059129;28;20482;-76
2022/07/29 01:24:12;;;;;;;5.03;0.80;;;16.90;90.80;;;;;;5058745;28;20341;-76
2022/07/29 01:26:38;;;;;;;4.00;0.70;;;16.90;90.90;;;;;;5058235;28;20035;-76
2022/07/29 01:29:06;;;;;;;4.25;0.73;;;16.90;90.90;;;;;;5047875;28;20058;-76
2022/07/29 01:32:00;;;;;;;4.07;0.50;;;16.90;91.00;;;;;;5064563;28;20349;-76
2022/07/29 01:34:42;;;;;;;1.30;0.50;;;16.90;91.10;;;;;;5060827;28;20025;-76
2022/07/29 01:37:21;;;;;;;1.85;0.50;;;16.90;91.20;;;;;;5062800;28;20588;-76
2022/07/29 01:39:51;;;;;;;1.55;0.50;;;16.90;91.30;;;;;;5045788;28;20021;-76
2022/07/29 01:42:22;;;;;;;1.55;0.40;;;16.80;91.30;;;;;;5044309;28;20017;-76
2022/07/29 01:45:03;;;;;;;2.40;0.70;;;16.80;91.40;;;;;;5042037;28;20373;-76
2022/07/29 01:47:43;;;;;;;1.08;0.40;;;16.80;91.40;;;;;;5061347;28;20021;-76
2022/07/29 01:50:16;;;;;;;2.92;0.50;;;16.80;91.40;;;;;;5061843;28;20028;-76
2022/07/29 01:52:59;;;;;;;1.38;0.40;;;16.80;91.40;;;;;;5060723;28;20040;-76
2022/07/29 01:55:33;;;;;;;1.40;0.40;;;16.80;91.50;;;;;;5060223;28;20436;-76
2022/07/29 01:58:04;;;;;;;1.10;0.40;;;16.80;91.40;;;;;;5060155;28;20414;-76
2022/07/29 02:00:34;;;;;;;2.03;0.40;;;16.80;91.40;;;;;;5061985;28;20024;-76
2022/07/29 02:03:07;;;;;;;2.83;0.50;;;16.80;91.40;;;;;;5062451;28;20032;-76
2022/07/29 02:05:34;;;;;;;1.95;0.40;;;16.90;91.40;;;;;;5061048;28;20033;-76
2022/07/29 02:08:03;;;;;;;1.95;0.40;;;16.90;91.40;;;;;;5060505;28;20017;-76
2022/07/29 02:10:38;;;;;;;1.85;0.65;;;16.90;91.50;;;;;;5028341;28;20013;-76
2022/07/29 02:13:06;;;;;;;2.67;0.60;;;16.90;91.50;;;;;;5043134;28;20021;-76
2022/07/29 02:15:35;;;;;;;5.53;1.13;;;16.90;91.70;;;;;;5059142;28;20020;-76
2022/07/29 02:18:20;;;;;;;2.20;0.40;;;16.80;91.90;;;;;;5046076;28;21312;-76
2022/07/29 02:20:54;;;;;;;1.20;0.40;;;16.80;92.00;;;;;;5045611;28;20025;-76
2022/07/29 02:23:26;;;;;;;1.73;0.40;;;16.70;92.20;;;;;;5061897;28;20021;-76
2022/07/29 02:26:01;;;;;;;1.05;0.40;;;16.70;92.50;;;;;;5044224;28;20451;-76
2022/07/29 02:28:29;;;;;;;0.90;0.40;;;16.60;92.50;;;;;;5061352;28;20020;-76
2022/07/29 02:31:02;;;;;;;2.60;0.50;;;16.60;92.60;;;;;;5045968;28;20025;-76
2022/07/29 02:33:31;;;;;;;2.60;0.60;;;16.70;92.80;;;;;;5062304;28;20017;-76
2022/07/29 02:35:59;;;;;;;1.88;0.40;;;16.70;92.90;;;;;;5058948;28;20021;-76
2022/07/29 02:41:22;;;;;;;3.90;0.43;;;16.70;92.80;;;;;;5060423;28;20029;-76
2022/07/29 02:43:54;;;;;;;2.83;0.50;;;16.60;92.90;;;;;;5062920;28;20021;-76
2022/07/29 02:46:34;;;;;;;1.17;0.50;;;16.60;93.10;;;;;;5059940;28;20037;-76
2022/07/29 02:49:12;;;;;;;1.10;0.52;;;16.60;93.20;;;;;;5061101;28;20380;-76
2022/07/29 02:51:50;;;;;;;2.90;0.57;;;16.60;93.30;;;;;;5061309;28;20032;-76
2022/07/29 02:54:30;;;;;;;0.90;0.50;;;16.60;93.40;;;;;;5042315;28;20506;-76
2022/07/29 02:57:02;;;;;;;2.25;0.40;;;16.60;93.40;;;;;;5058226;28;20056;-76
2022/07/29 02:59:32;;;;;;;3.33;0.60;;;16.50;93.60;;;;;;5061815;28;20025;-76
2022/07/29 03:01:59;;;;;;;2.65;0.60;;;16.50;94.00;;;;;;5059926;28;22473;-76
2022/07/29 03:04:28;;;;;;;1.33;0.50;;;16.40;94.10;;;;;;5056705;28;20016;-76
2022/07/29 03:06:59;;;;;;;1.33;0.45;;;16.40;94.50;;;;;;5045578;28;20025;-76
2022/07/29 03:09:29;;;;;;;2.33;0.60;;;16.30;94.70;;;;;;5058802;28;20035;-76
2022/07/29 03:11:57;;;;;;;4.40;0.60;;;16.30;94.90;;;;;;5057396;28;20045;-76
2022/07/29 03:14:26;;;;;;;1.73;0.60;;;16.20;95.10;;;;;;5058830;28;20021;-76
2022/07/29 03:16:52;;;;;;;2.13;0.60;;;16.20;95.40;;;;;;5044576;28;20067;-76
2022/07/29 03:19:21;;;;;;;3.35;0.70;;;16.10;95.60;;;;;;5042678;28;20032;-76
2022/07/29 03:21:57;;;;;;;1.98;0.60;;;16.00;95.80;;;;;;5061039;28;20431;-76
2022/07/29 03:24:35;;;;;;;4.90;1.00;;;15.90;96.10;;;;;;5058262;28;20025;-76
2022/07/29 03:27:03;;;;;;;1.77;0.75;;;15.80;96.80;;;;;;5062410;28;20045;-76
2022/07/29 03:29:30;;;;;;;1.75;0.77;;;15.70;97.10;;;;;;5059691;28;20044;-75
2022/07/29 03:31:56;;;;;;;3.72;0.90;;;15.60;97.50;;;;;;5060409;28;20032;-75
2022/07/29 03:34:23;;;;;;;1.75;0.65;;;15.50;98.10;;;;;;5041109;28;20021;-75
2022/07/29 03:36:50;;;;;;;6.70;1.73;;;15.40;98.50;;;;;;5058481;28;20044;-75
2022/07/29 03:39:30;;;;;;;1.63;0.90;;;15.40;98.90;;;;;;5043078;28;20027;-75
2022/07/29 03:42:01;;;;;;;2.35;0.65;;;15.30;99.30;;;;;;5059853;28;20459;-75
2022/07/29 03:44:29;;;;;;;4.15;0.90;;;15.20;99.60;;;;;;5041950;28;20033;-74
2022/07/29 03:46:58;;;;;;;2.25;0.77;;;15.20;99.90;;;;;;5060609;28;20032;-74
2022/07/29 03:49:26;;;;;;;2.35;0.90;;;15.10;99.90;;;;;;5057070;28;20036;-74
2022/07/29 03:51:53;;;;;;;4.32;1.27;;;15.10;99.90;;;;;;5058369;28;20032;-74
2022/07/29 03:54:20;;;;;;;4.63;0.85;;;15.00;99.90;;;;;;5055015;28;20025;-74
2022/07/29 03:56:50;;;;;;;1.73;0.88;;;15.00;99.90;;;;;;5059084;28;20067;-74
2022/07/29 03:59:17;;;;;;;5.18;0.88;;;15.00;99.90;;;;;;5059984;28;20024;-74
2022/07/29 04:01:44;;;;;;;3.58;0.90;;;14.90;99.90;;;;;;5059805;28;20035;-74
2022/07/29 04:04:15;;;;;;;1.98;1.30;;;14.90;99.90;;;;;;5056926;28;20392;-73
2022/07/29 04:06:44;;;;;;;3.90;0.98;;;14.90;99.90;;;;;;5059730;28;20039;-73
2022/07/29 04:09:13;;;;;;;2.58;1.10;;;14.90;99.90;;;;;;5059229;28;20020;-73
2022/07/29 04:11:45;;;;;;;2.15;1.08;;;14.90;99.90;;;;;;5058881;28;20016;-73
2022/07/29 04:14:16;;;;;;;3.00;1.27;;;14.80;99.90;;;;;;5056691;28;20041;-73
2022/07/29 04:16:43;;;;;;;3.95;1.10;;;14.80;99.90;;;;;;5059658;28;20016;-73
2022/07/29 04:19:10;;;;;;;2.30;1.05;;;14.80;99.90;;;;;;5059203;28;20017;-73
2022/07/29 04:21:45;;;;;;;2.45;1.40;;;14.80;99.90;;;;;;5057476;28;20032;-73
2022/07/29 04:24:16;;;;;;;2.38;0.85;;;14.80;99.90;;;;;;5057869;28;20029;-73
2022/07/29 04:26:42;;;;;;;4.15;1.65;;;14.80;99.90;;;;;;5059322;28;20035;-73
2022/07/29 04:29:09;;;;;;;1.98;1.23;;;14.80;99.90;;;;;;5057790;28;20043;-73
2022/07/29 04:31:35;;;;;;;1.73;1.10;;;14.80;99.90;;;;;;5043012;28;20033;-74
2022/07/29 04:34:02;;;;;;;2.42;1.00;;;14.70;99.90;;;;;;5023717;28;20028;-74
2022/07/29 04:36:28;;;;;;;2.15;1.00;;;14.80;99.90;;;;;;5042632;28;20025;-74
2022/07/29 04:38:54;;;;;;;2.90;1.38;;;14.80;99.90;;;;;;5059960;28;20032;-74
2022/07/29 04:41:23;;;;;;;2.20;0.90;;;14.80;99.90;;;;;;5042791;28;20360;-74
2022/07/29 04:43:49;;;;;;;2.47;0.77;;;14.80;99.90;;;;;;5058997;28;20020;-74
2022/07/29 04:46:16;;;;;;;2.72;0.90;;;14.80;99.90;;;;;;5042844;28;20039;-73
2022/07/29 04:48:44;;;;;;;2.22;0.80;;;14.80;99.90;;;;;;5057951;28;20029;-73
2022/07/29 04:51:11;;;;;;;2.83;1.00;;;14.90;99.90;;;;;;5059606;28;20021;-73
2022/07/29 04:53:37;;;;;;;3.38;1.20;;;14.90;99.90;;;;;;5027344;28;20029;-74
2022/07/29 04:56:04;;;;;;;2.85;1.30;;;14.90;99.90;;;;;;5055493;28;20028;-73
2022/07/29 04:58:31;;;;;;;2.67;1.23;;;14.90;99.90;;;;;;5062663;28;20060;-73
2022/07/29 05:00:57;;;;;;;3.15;1.02;;;14.90;99.90;;;;;;5063915;28;20021;-73
2022/07/29 05:03:24;;;;;;;4.35;1.45;;;14.90;99.90;;;;;;5066571;28;20027;-73
2022/07/29 05:05:50;;;;;;;6.03;1.40;;;14.90;99.90;;;;;;5048746;28;20044;-73
2022/07/29 05:08:20;;;;;;;3.13;0.90;;;14.90;99.90;;;;;;5071910;28;20035;-73
2022/07/29 05:10:46;;;;;;;2.53;1.10;;;14.90;99.90;;;;;;5052886;28;20024;-73
2022/07/29 05:13:16;;;;;;;2.45;0.80;;;14.90;99.90;;;;;;5050754;28;20027;-73
2022/07/29 05:15:44;;;;;;;1.77;1.10;;;14.90;99.90;;;;;;5064574;28;20023;-73
2022/07/29 05:18:10;;;;;;;2.72;1.13;;;14.90;99.90;;;;;;5062858;28;20048;-73
2022/07/29 05:20:37;;;;;;;2.17;0.93;;;14.90;99.90;;;;;;5063897;28;20036;-73
2022/07/29 05:23:05;;;;;;;1.60;1.08;;;14.90;99.90;;;;;;5062825;28;20021;-73
2022/07/29 05:25:31;;;;;;;3.13;1.17;;;14.90;99.90;;;;;;5061546;28;20021;-73
2022/07/29 05:27:58;;;;;;;2.10;0.60;;;14.90;99.90;;;;;;5064860;28;20032;-74
2022/07/29 05:30:24;;;;;;;2.42;1.10;;;15.00;99.90;;;;;;5064359;28;20032;-74
2022/07/29 05:32:51;;;;;;;1.50;0.60;;;15.00;99.90;;;;;;5047967;28;20024;-74
2022/07/29 05:35:20;;;;;;;2.15;1.08;;;15.10;99.90;;;;;;5062114;28;20025;-75
2022/07/29 05:37:47;;;;;;;2.95;1.10;;;15.10;99.90;;;;;;5048304;28;20035;-74
2022/07/29 05:40:14;;;;;;;2.60;0.93;;;15.20;99.90;;;;;;5064073;28;22878;-75
2022/07/29 05:42:40;;;;;;;4.53;1.00;;;15.20;99.90;;;;;;5047149;28;20036;-74
2022/07/29 05:45:08;;;;;;;3.42;1.50;;;15.30;99.90;;;;;;5060433;28;20341;-75
2022/07/29 05:47:37;;;;;;;4.07;1.48;;;15.30;99.90;;;;;;5047135;28;20047;-75
2022/07/29 05:50:04;;;;;;;2.88;0.98;;;15.40;99.90;;;;;;5061142;28;20049;-76
2022/07/29 05:52:31;;;;;;;5.47;1.48;;;15.40;99.90;;;;;;5045923;28;20029;-76
2022/07/29 05:54:57;;;;;;;6.18;4.22;;;15.40;99.90;;;;;;5059109;28;20024;-75
2022/07/29 05:57:24;;;;;;;6.75;4.03;;;15.50;99.90;;;;;;5060758;28;20690;-75
2022/07/29 05:59:51;;;;;;;3.47;2.00;;;15.50;99.90;;;;;;5062172;28;20403;-75
2022/07/29 06:02:18;;;;;;;2.55;1.52;;;15.50;99.90;;;;;;5030675;28;20513;-75
2022/07/29 06:04:45;;;;;;;4.10;1.38;;;15.50;99.90;;;;;;5059352;28;20440;-75
2022/07/29 06:07:17;;;;;;;4.90;2.78;;;15.60;99.90;;;;;;5042705;28;20029;-75
2022/07/29 06:09:44;;;;;;;;;;;15.60;99.90;;;;;;5062731;28;20036;-76
2022/07/29 06:12:14;;;;;;;3.58;2.33;;;15.70;99.90;;;;;;5060159;28;19917;-75
2022/07/29 06:14:41;;;;;;;4.18;1.90;;;15.70;99.90;;;;;;5058642;28;20036;-75
2022/07/29 06:17:08;;;;;;;3.42;1.50;;;15.80;99.90;;;;;;5060841;28;20095;-75
2022/07/29 06:19:36;;;;;;;4.30;1.52;;;15.80;99.90;;;;;;5061066;28;20023;-76
2022/07/29 06:22:03;;;;;;;2.95;1.55;;;15.90;99.90;;;;;;5009069;28;20020;-75
2022/07/29 06:24:32;;;;;;;3.05;1.38;;;16.00;99.90;;;;;;5041513;28;20039;-75
2022/07/29 06:27:01;;;;;;;4.68;2.67;;;16.10;99.90;;;;;;5043859;28;20043;-75
2022/07/29 06:29:27;;;;;;;4.72;3.55;;;16.20;99.90;;;;;;5060765;28;20023;-74
2022/07/29 06:32:05;;;;;;;3.38;1.60;;;16.30;99.90;;;;;;5061519;28;20012;-75
2022/07/29 06:34:32;;;;;;;2.40;1.17;;;16.40;99.90;;;;;;5040972;28;20041;-75
2022/07/29 06:37:05;;;;;;;2.88;1.25;;;16.40;99.90;;;;;;5044695;28;20079;-75
2022/07/29 06:39:37;;;;;;;2.05;0.70;;;16.50;99.90;;;;;;5062979;28;20428;-75
2022/07/29 06:42:04;;;;;;;5.32;1.23;;;16.50;99.90;;;;;;5062928;28;20378;-75
2022/07/29 06:44:35;;;;;;;6.20;1.00;;;16.50;99.90;;;;;;5056976;28;20037;-75
2022/07/29 06:47:08;;;;;;;3.67;1.30;;;16.60;99.90;;;;;;5058806;28;20036;-75
2022/07/29 06:49:35;;;;;;;1.98;0.80;;;16.60;99.90;;;;;;5060399;28;20028;-75
2022/07/29 06:52:01;;;;;;;3.10;1.00;;;16.70;99.90;;;;;;5060993;28;20021;-74
2022/07/29 06:54:31;;;;;;;1.95;0.70;;;16.90;99.90;;;;;;5038922;28;20425;-75
2022/07/29 06:56:58;;;;;;;2.95;1.10;;;17.00;99.90;;;;;;5043270;28;20051;-75
2022/07/29 06:59:25;;;;;;;4.88;0.90;;;17.20;99.90;;;;;;5059123;28;20032;-73
2022/07/29 07:01:55;;;;;;;3.20;1.00;;;17.30;99.90;;;;;;5075571;28;20044;-72
2022/07/29 07:04:23;;;;;;;;;;;17.40;99.90;;;;;;5059644;28;20024;-72
2022/07/29 07:06:50;;;;;;;3.00;0.73;;;17.50;99.90;;;;;;5060636;28;19935;-73
2022/07/29 07:09:16;;;;;;;2.10;0.70;;;17.60;99.90;;;;;;5059389;28;20517;-73
2022/07/29 07:11:42;;;;;;;3.00;0.98;;;17.80;99.90;;;;;;5060078;28;20017;-73
2022/07/29 07:14:11;;;;;;;3.83;1.00;;;17.80;99.90;;;;;;5039396;28;20652;-73
2022/07/29 07:16:38;;;;;;;3.03;0.70;;;17.90;99.90;;;;;;5044493;28;20028;-73
2022/07/29 07:19:04;;;;;;;2.20;0.80;;;18.00;99.90;;;;;;5061121;28;20032;-72
2022/07/29 07:21:32;;;;;;;4.05;1.02;;;18.00;99.90;;;;;;5060332;28;20025;-73
2022/07/29 07:23:59;;;;;;;1.98;0.70;;;17.90;99.90;;;;;;5057684;28;20066;-73
2022/07/29 07:26:28;;;;;;;2.95;0.80;;;17.90;99.90;;;;;;5059571;28;20903;-73
2022/07/29 07:28:54;;;;;;;2.80;0.95;;;18.00;99.90;;;;;;5057078;28;20033;-73
2022/07/29 07:31:21;;;;;;;5.28;1.40;;;17.90;99.90;;;;;;5060564;28;20463;-73
2022/07/29 07:33:47;;;;;;;1.75;0.80;;;17.90;99.90;;;;;;5057342;28;20020;-74
2022/07/29 07:36:14;;;;;;;8.10;1.27;;;17.80;99.90;;;;;;5041659;28;20029;-73
2022/07/29 07:38:41;;;;;;;3.30;1.02;;;17.80;99.90;;;;;;5057348;28;20032;-73
2022/07/29 07:41:08;;;;;;;3.08;0.90;;;17.80;99.90;;;;;;5060790;28;20032;-73
2022/07/29 07:43:35;;;;;;;2.13;0.85;;;17.90;99.90;;;;;;5061228;28;20017;-73
2022/07/29 07:46:01;;;;;;;1.75;0.70;;;17.90;99.90;;;;;;5059596;28;20017;-75
2022/07/29 07:48:29;;;;;;;6.70;0.85;;;18.00;99.90;;;;;;5041903;28;20045;-76
2022/07/29 07:50:56;;;;;;;1.90;0.70;;;18.10;99.90;;;;;;5059274;28;20033;-75
2022/07/29 07:53:22;;;;;;;2.67;0.85;;;18.10;99.90;;;;;;5057425;28;20024;-75
2022/07/29 07:55:49;;;;;;;4.80;1.20;;;18.10;99.90;;;;;;5055131;28;20035;-73
2022/07/29 07:58:16;;;;;;;5.47;2.55;;;18.20;99.90;;;;;;5056300;28;20528;-72
2022/07/29 08:00:43;;;;;;;3.17;2.00;;;18.20;99.90;;;;;;5040986;28;20033;-72
2022/07/29 08:03:13;;;;;;;6.50;4.40;;;18.30;99.90;;;;;;5055786;28;20029;-72
2022/07/29 08:05:41;;;;;;;3.15;2.40;;;18.40;99.90;;;;;;5038859;28;20051;-72
2022/07/29 08:08:22;;;;;;;3.10;1.52;;;18.40;99.90;;;;;;5056472;28;20071;-73
2022/07/29 08:11:14;;;;;;;3.60;1.02;;;18.50;99.90;;;;;;5031581;28;20373;-73
2022/07/29 08:14:06;;;;;;;1.95;0.75;;;18.60;99.90;;;;;;5044560;28;20033;-74
2022/07/29 08:16:55;;;;;;;3.83;0.70;;;18.70;99.90;;;;;;5054388;28;20028;-73
2022/07/29 08:19:22;;;;;;;2.85;1.10;;;18.70;99.90;;;;;;5059280;28;20021;-73
2022/07/29 08:21:48;;;;;;;2.42;1.00;;;18.80;99.90;;;;;;5058291;28;20051;-73
2022/07/29 08:27:02;;;;;;;3.10;1.60;;;19.00;99.90;;;;;;5059589;28;20040;-74
2022/07/29 08:29:32;;;;;;;3.88;1.60;;;19.10;99.90;;;;;;5058658;28;20021;-74
2022/07/29 08:31:58;;;;;;;4.18;1.13;;;19.30;99.90;;;;;;5058160;28;20495;-74
2022/07/29 08:34:26;;;;;;;2.22;0.77;;;19.40;99.90;;;;;;5038529;28;20025;-74
2022/07/29 08:36:53;;;;;;;3.97;0.82;;;19.50;99.90;;;;;;5043545;28;20039;-75
2022/07/29 08:39:19;;;;;;;1.63;0.60;;;19.60;99.90;;;;;;5060251;28;20028;-74
2022/07/29 08:42:01;;;;;;;22.42;14.93;;;19.80;99.90;;;;;;5064167;28;20383;-74
2022/07/29 08:44:28;;;;;;;7.13;5.18;;;19.80;99.90;;;;;;5065310;28;20035;-74
2022/07/29 08:46:56;;;;;;;4.78;2.97;;;19.80;99.90;;;;;;5048374;28;20032;-74
2022/07/29 08:49:34;;;;;;;2.65;1.20;;;19.80;99.90;;;;;;5061003;28;20048;-74
2022/07/29 08:52:15;;;;;;;2.67;0.93;;;19.80;99.90;;;;;;5065742;28;20479;-75
2022/07/29 08:54:48;;;;;;;1.50;0.63;;;19.70;99.90;;;;;;5062815;28;20470;-74
2022/07/29 08:57:18;;;;;;;3.13;1.00;;;19.70;99.90;;;;;;5065390;28;20048;-74
2022/07/29 08:59:46;;;;;;;2.08;0.60;;;19.80;99.90;;;;;;5064169;28;20032;-72
2022/07/29 09:02:20;;;;;;;3.15;0.82;;;19.80;99.90;;;;;;5065029;28;20025;-72
2022/07/29 09:04:46;;;;;;;3.33;0.80;;;19.90;99.90;;;;;;5063434;28;20029;-73
2022/07/29 09:07:15;;;;;;;3.05;1.10;;;19.90;99.90;;;;;;5062838;28;20036;-74
2022/07/29 09:09:42;;;;;;;4.43;1.02;;;19.90;99.90;;;;;;5063763;28;20013;-75
2022/07/29 09:12:11;;;;;;;3.47;1.20;;;19.90;99.90;;;;;;5064855;28;20028;-75
2022/07/29 09:14:39;;;;;;;2.22;0.90;;;20.00;99.90;;;;;;5061845;28;20118;-74
2022/07/29 09:17:06;;;;;;;1.30;0.50;;;19.90;99.90;;;;;;5064292;28;20020;-74
2022/07/29 09:19:35;;;;;;;1.52;0.70;;;20.00;99.90;;;;;;5059542;28;20033;-74
2022/07/29 09:22:05;;;;;;;1.52;0.60;;;19.90;99.90;;;;;;5060397;28;20036;-75
2022/07/29 09:24:41;;;;;;;1.40;0.80;;;19.90;99.90;;;;;;5059624;28;20024;-74
2022/07/29 09:27:21;;;;;;;1.42;0.60;;;20.00;99.90;;;;;;5060670;28;20471;-73
2022/07/29 09:30:00;;;;;;;1.98;0.70;;;20.00;99.90;;;;;;5063145;28;20012;-73
2022/07/29 09:32:27;;;;;;;2.72;0.70;;;20.00;99.90;;;;;;5066286;28;20016;-73
2022/07/29 09:35:14;;;;;;;1.90;0.95;;;20.00;99.90;;;;;;5061584;28;20035;-73
2022/07/29 09:37:40;;;;;;;2.92;0.75;;;20.00;99.90;;;;;;5063376;28;20024;-73
2022/07/29 09:40:22;;;;;;;3.53;0.95;;;19.90;99.90;;;;;;5046312;28;20051;-73
2022/07/29 09:42:49;;;;;;;3.38;1.00;;;19.90;99.90;;;;;;5061667;28;20079;-74
2022/07/29 09:45:50;;;;;;;2.88;0.95;;;19.80;99.90;;;;;;5058665;28;20016;-72
2022/07/29 09:48:19;;;;;;;2.85;0.98;;;19.80;99.90;;;;;;5011089;28;20044;-73
2022/07/29 09:50:49;;;;;;;2.85;0.90;;;19.70;99.90;;;;;;5060529;28;20472;-74
2022/07/29 09:53:32;;;;;;;2.17;1.10;;;19.70;99.90;;;;;;5065090;28;20020;-74
2022/07/29 09:55:59;;;;;;;3.42;0.90;;;19.70;99.90;;;;;;5062585;28;20502;-74
2022/07/29 09:58:29;;;;;;;4.35;0.85;;;19.80;99.90;;;;;;5019942;28;20043;-74
2022/07/29 10:01:15;;;;;;;2.85;1.38;;;19.80;99.90;;;;;;5048428;28;20040;-74
2022/07/29 10:04:11;;;;;;;3.38;0.75;;;19.90;99.90;;;;;;5064445;28;20013;-74
2022/07/29 10:07:14;;;;;;;4.68;1.00;;;20.00;99.90;;;;;;5053308;28;20028;-74
2022/07/29 10:09:57;;;;;;;2.05;1.20;;;20.30;99.90;;;;;;5025333;28;20040;-74
2022/07/29 10:12:24;;;;;;;3.50;0.85;;;20.60;99.90;;;;;;5047190;28;20038;-74
2022/07/29 10:15:12;;;;;;;3.85;0.82;;;20.90;99.90;;;;;;5059588;28;20023;-74
2022/07/29 10:17:40;;;;;;;2.80;1.23;;;21.20;99.70;;;;;;5063113;28;20024;-74
2022/07/29 10:20:10;;;;;;;2.75;0.82;;;21.40;98.90;;;;;;5061224;28;20039;-74
2022/07/29 10:22:38;;;;;;;3.08;0.85;;;21.60;99.00;;;;;;5062665;28;20031;-74
2022/07/29 10:25:20;;;;;;;3.17;1.02;;;22.00;99.00;;;;;;5041005;28;20608;-74
2022/07/29 10:27:51;;;;;;;3.25;0.88;;;22.30;98.50;;;;;;5061995;28;20043;-75
2022/07/29 10:30:22;;;;;;;4.82;1.00;;;22.50;98.20;;;;;;5060430;28;20035;-74
2022/07/29 10:33:28;;;;;;;3.25;0.93;;;22.50;97.90;;;;;;5060677;28;20024;-74
2022/07/29 10:36:19;;;;;;;3.42;0.93;;;22.70;97.80;;;;;;5058385;28;20040;-75
2022/07/29 10:39:04;;;;;;;1.83;0.65;;;22.90;97.60;;;;;;5060306;28;20459;-75
2022/07/29 10:42:13;;;;;;;3.10;0.80;;;23.30;97.60;;;;;;5046078;28;20036;-75
2022/07/29 10:47:29;;;;;;;1.65;0.57;;;24.30;96.90;;;;;;5034225;28;20028;-74
2022/07/29 10:50:02;;;;;;;4.68;2.30;;;25.00;96.70;;;;;;5064597;28;20033;-73
2022/07/29 10:52:57;;;;;;;4.90;0.93;;;25.60;95.70;;;;;;5031476;28;20035;-73
2022/07/29 10:55:44;;;;;;;4.50;1.00;;;26.10;94.60;;;;;;5059902;28;20387;-73
2022/07/29 10:58:43;;;;;;;1.40;0.52;;;26.40;94.10;;;;;;4981161;28;20061;-73
2022/07/29 11:01:29;;;;;;;2.38;0.70;;;26.80;94.00;;;;;;4968968;28;20038;-74
2022/07/29 11:03:56;;;;;;;3.65;0.95;;;27.20;93.50;;;;;;4993785;28;21702;-75
2022/07/29 11:06:25;;;;;;;1.33;0.60;;;27.40;92.60;;;;;;4967944;28;20030;-74
2022/07/29 11:09:15;;;;;;;2.42;0.70;;;27.50;91.80;;;;;;4987920;28;20072;-74
2022/07/29 11:11:42;;;;;;;3.17;0.60;;;27.50;90.10;;;;;;4987296;28;20465;-74
2022/07/29 11:14:08;;;;;;;3.47;0.68;;;27.60;88.80;;;;;;4986916;28;20375;-75
2022/07/29 11:17:02;;;;;;;2.03;0.82;;;27.70;88.40;;;;;;4984190;28;20624;-73
2022/07/29 11:19:28;;;;;;;3.85;0.60;;;27.80;86.90;;;;;;4978703;28;21195;-73
2022/07/29 11:21:55;;;;;;;2.35;0.60;;;28.10;86.00;;;;;;5000803;28;20153;-73
2022/07/29 11:24:27;;;;;;;1.52;0.60;;;28.40;85.60;;;;;;4998505;28;20014;-73
2022/07/29 11:27:14;;;;;;;4.20;1.23;;;28.70;85.10;;;;;;4999352;28;20034;-73
2022/07/29 11:30:11;;;;;;;2.75;0.70;;;29.00;80.40;;;;;;4998188;28;20374;-74
2022/07/29 11:32:43;;;;;;;1.42;0.52;;;28.70;81.00;;;;;;4978843;28;20041;-74
2022/07/29 11:35:22;;;;;;;2.22;0.70;;;28.50;79.80;;;;;;5003989;28;20018;-76
2022/07/29 11:38:25;;;;;;;2.83;0.75;;;28.40;78.50;;;;;;5000359;28;20036;-75
2022/07/29 11:41:24;;;;;;;3.20;0.60;;;28.50;78.10;;;;;;4998284;28;20042;-75
2022/07/29 11:44:04;;;;;;;1.88;0.40;;;28.60;77.80;;;;;;5058490;28;20029;-76
2022/07/29 11:46:48;;;;;;;1.55;0.70;;;28.70;78.10;;;;;;5063935;28;20028;-76
2022/07/29 11:49:25;;;;;;;2.38;0.63;;;29.10;76.20;;;;;;5061514;28;20047;-75
2022/07/29 11:51:53;;;;;;;1.35;0.50;;;29.40;74.10;;;;;;5060727;28;20021;-76
2022/07/29 11:54:34;;;;;;;4.03;0.70;;;29.40;72.50;;;;;;5060172;28;20012;-76
2022/07/29 11:57:22;;;;;;;3.67;0.70;;;29.20;71.90;;;;;;5062517;28;20051;-75
2022/07/29 12:00:25;;;;;;;2.00;0.60;;;28.90;72.60;;;;;;5060717;28;20036;-74
2022/07/29 12:03:35;;;;;;;2.38;0.60;;;28.80;72.80;;;;;;5044949;28;20051;-75
2022/07/29 12:06:18;;;;;;;1.45;0.60;;;28.70;73.50;;;;;;5024639;28;20064;-77
2022/07/29 12:09:10;;;;;;;1.58;0.50;;;28.90;73.40;;;;;;5006034;28;20060;-75
2022/07/29 12:12:01;;;;;;;3.88;0.70;;;29.30;73.50;;;;;;5004576;28;20053;-76
2022/07/29 12:14:51;;;;;;;2.55;1.05;;;29.70;71.80;;;;;;5016943;28;20025;-77
2022/07/29 12:17:39;;;;;;;3.28;0.70;;;30.00;71.30;;;;;;5004001;28;20049;-76
2022/07/29 12:20:30;;;;;;;3.15;0.60;;;30.90;69.70;;;;;;5023580;28;20036;-75
2022/07/29 12:23:06;;;;;;;5.00;0.60;;;31.70;68.10;;;;;;4975754;28;20027;-76
2022/07/29 12:25:36;;;;;;;2.97;0.70;;;32.40;65.10;;;;;;4977708;28;20049;-75
2022/07/29 12:28:08;;;;;;;6.72;3.15;;;32.80;64.10;;;;;;4979600;28;20394;-73
2022/07/29 12:31:11;;;;;;;2.38;0.60;;;33.20;63.40;;;;;;4992239;28;20381;-73
2022/07/29 12:34:16;;;;;;;2.75;0.70;;;33.40;59.50;;;;;;4900717;29;20492;-73
2022/07/29 12:36:46;;;;;;;1.67;0.50;;;33.50;59.90;;;;;;4910139;29;20051;-72
2022/07/29 12:39:14;;;;;;;4.13;0.80;;;33.90;59.60;;;;;;4918410;28;21358;-72
2022/07/29 12:41:41;;;;;;;2.80;0.60;;;34.40;58.80;;;;;;4959776;28;20046;-73
2022/07/29 12:44:20;;;;;;;1.85;0.50;;;34.80;56.90;;;;;;4926752;28;20042;-74
2022/07/29 12:47:02;;;;;;;3.38;0.55;;;35.10;55.00;;;;;;4960911;28;20034;-72
2022/07/29 12:49:32;;;;;;;1.83;0.50;;;35.20;53.60;;;;;;4945186;28;20518;-73
2022/07/29 12:51:59;;;;;;;3.60;0.55;;;35.20;52.90;;;;;;4944843;28;20030;-74
2022/07/29 12:54:28;;;;;;;1.67;0.60;;;35.10;52.10;;;;;;4982817;28;20034;-74
2022/07/29 12:57:00;;;;;;;3.30;0.90;;;35.20;52.30;;;;;;5000220;28;20048;-75
2022/07/29 12:59:27;;;;;;;2.95;0.60;;;35.40;51.30;;;;;;4983127;28;20482;-74
2022/07/29 13:01:53;;;;;;;3.42;0.60;;;35.60;50.80;;;;;;4983473;28;20018;-75
2022/07/29 13:04:31;;;;;;;2.05;0.65;;;35.70;49.30;;;;;;4977720;28;20768;-74
2022/07/29 13:07:07;;;;;;;2.72;0.50;;;36.00;50.00;;;;;;4998288;28;20041;-74
2022/07/29 13:09:45;;;;;;;1.65;0.43;;;36.50;49.10;;;;;;4998676;28;20026;-74
2022/07/29 13:12:13;;;;;;;3.20;0.60;;;36.90;48.20;;;;;;4966730;28;20018;-74
2022/07/29 13:14:44;;;;;;;2.40;0.43;;;37.10;47.90;;;;;;4995676;28;20060;-74
2022/07/29 13:17:20;;;;;;;2.08;0.52;;;37.10;46.00;;;;;;4999981;28;20414;-75
2022/07/29 13:19:49;;;;;;;1.52;0.40;;;37.30;45.60;;;;;;4983825;28;20034;-74
2022/07/29 13:22:18;;;;;;;2.05;0.50;;;37.40;45.70;;;;;;4983600;28;20049;-74
2022/07/29 13:24:52;;;;;;;0.90;0.40;;;37.80;46.00;;;;;;5042211;28;20037;-74